Time;durP1;ratioP1;P1;durP2;ratioP2;P2;SDS_P1;SDS_P2;PMS_P1;PMS_P2;Temp;Humidity;BMP_temperature;BMP_pressure;BME280_temperature;BME280_humidity;BME280_pressure;Samples;Min_cycle;Max_cycle;Signal;HPM_P1;HPM_P2
2023/05/26 00:01:49;;;;;;;37.20;26.90;;;;;;;15.65;70.72;99584.52;223505;183;145195;-64
2023/05/26 00:06:54;;;;;;;42.00;28.10;;;;;;;15.69;70.73;99586.76;223500;183;138936;-65
2023/05/26 00:12:05;;;;;;;39.20;28.10;;;;;;;15.70;70.71;99591.89;223530;183;137964;-67
2023/05/26 00:17:09;;;;;;;43.80;30.20;;;;;;;15.70;70.75;99590.05;223465;183;145853;-67
2023/05/26 00:22:14;;;;;;;37.50;29.20;;;;;;;15.68;70.72;99587.52;223620;181;139000;-67
2023/05/26 00:27:18;;;;;;;37.80;27.00;;;;;;;15.66;70.76;99581.95;223616;181;137043;-65
2023/05/26 00:32:21;;;;;;;35.80;27.10;;;;;;;15.63;70.87;99582.00;223555;181;145388;-65
2023/05/26 00:37:25;;;;;;;41.10;29.50;;;;;;;15.66;70.97;99574.30;223466;181;139217;-68
2023/05/26 00:42:29;;;;;;;45.00;29.80;;;;;;;15.72;70.91;99572.17;223604;182;138173;-65
2023/05/26 00:47:32;;;;;;;38.70;30.00;;;;;;;15.75;70.70;99569.27;223565;182;146174;-65
2023/05/26 00:52:35;;;;;;;43.00;30.10;;;;;;;15.71;70.52;99571.89;223572;182;138981;-65
2023/05/26 00:57:38;;;;;;;38.10;28.60;;;;;;;15.65;70.72;99574.31;223570;181;136816;-65
2023/05/26 01:02:45;;;;;;;38.50;28.60;;;;;;;15.62;70.99;99567.87;223625;182;145386;-64
2023/05/26 01:07:49;;;;;;;42.10;30.00;;;;;;;15.68;70.92;99570.55;223600;182;140624;-66
2023/05/26 01:37:32;;;;;;;42.80;31.10;;;;;;;15.54;71.30;99542.98;221568;208;666566;-64
2023/05/26 01:42:41;;;;;;;43.70;31.20;;;;;;;15.59;71.11;99549.73;223792;183;136601;-69
2023/05/26 01:47:49;;;;;;;46.30;31.40;;;;;;;15.57;71.12;99547.68;223505;183;144037;-70
2023/05/26 01:52:56;;;;;;;45.70;32.40;;;;;;;15.51;71.12;99548.00;223467;183;140565;-64
2023/05/26 01:58:01;;;;;;;40.60;30.20;;;;;;;15.45;71.31;99542.00;223479;184;137574;-66
2023/05/26 02:03:08;;;;;;;43.80;30.90;;;;;;;15.43;71.48;99540.54;222820;183;143650;-67
2023/05/26 02:08:12;;;;;;;42.40;30.20;;;;;;;15.45;71.58;99540.16;223559;183;138927;-67
2023/05/26 02:13:15;;;;;;;47.40;31.40;;;;;;;15.51;71.48;99543.48;223565;182;136561;-68
2023/05/26 02:18:21;;;;;;;43.40;31.10;;;;;;;15.49;71.39;99541.30;223749;182;145097;-67
2023/05/26 02:23:24;;;;;;;;;;;;;;;15.43;71.34;99542.45;223626;183;139552;-66
2023/05/26 02:28:27;;;;;;;46.60;31.40;;;;;;;15.35;71.49;99539.10;223646;182;129058;-68
2023/05/26 02:33:32;;;;;;;44.70;29.90;;;;;;;15.31;71.66;99530.50;223561;182;145771;-65
2023/05/26 02:38:35;;;;;;;45.50;30.30;;;;;;;15.26;71.85;99528.35;223621;182;138163;-66
2023/05/26 02:43:39;;;;;;;54.40;37.20;;;;;;;15.32;72.01;99532.93;223452;182;137653;-65
2023/05/26 02:48:45;;;;;;;78.90;57.30;;;;;;;15.37;72.00;99535.04;223552;183;145499;-65
2023/05/26 02:53:48;;;;;;;45.70;31.30;;;;;;;15.40;71.76;99530.39;223573;182;138306;-66
2023/05/26 02:58:51;;;;;;;44.50;30.90;;;;;;;15.41;71.75;99526.56;223523;183;137445;-65
2023/05/26 03:03:57;;;;;;;42.20;28.80;;;;;;;15.38;71.61;99528.55;223533;183;146511;-66
2023/05/26 03:09:01;;;;;;;42.30;29.60;;;;;;;15.39;71.65;99531.85;223517;183;139537;-63
2023/05/26 03:14:05;;;;;;;52.30;36.00;;;;;;;15.47;71.69;99526.45;223596;183;137220;-64
2023/05/26 03:19:08;;;;;;;47.50;31.30;;;;;;;15.53;71.46;99528.54;223435;180;145115;-65
2023/05/26 03:24:12;;;;;;;44.10;31.70;;;;;;;15.50;71.36;99532.80;223617;181;138771;-65
2023/05/26 03:29:18;;;;;;;42.40;30.60;;;;;;;15.49;71.34;99535.39;223607;181;137066;-65
2023/05/26 03:34:23;;;;;;;43.20;29.50;;;;;;;15.42;71.50;99531.64;223600;181;145236;-66
2023/05/26 03:39:28;;;;;;;41.10;30.10;;;;;;;15.43;71.66;99528.75;223523;181;138613;-66
2023/05/26 03:44:33;;;;;;;48.10;30.90;;;;;;;15.54;71.60;99533.80;223671;181;137505;-66
2023/05/26 03:49:37;;;;;;;44.50;32.10;;;;;;;15.60;71.38;99537.83;223578;181;145853;-65
2023/05/26 03:54:40;;;;;;;52.30;31.90;;;;;;;15.56;71.34;99532.73;223573;181;138380;-66
2023/05/26 03:59:43;;;;;;;49.20;33.10;;;;;;;15.52;71.42;99530.17;223631;181;137263;-69
2023/05/26 04:04:47;;;;;;;46.80;30.30;;;;;;;15.51;71.41;99534.38;223640;182;145468;-66
2023/05/26 04:09:50;;;;;;;65.90;45.80;;;;;;;15.50;71.57;99538.41;223621;181;138752;-65
2023/05/26 04:14:53;;;;;;;45.70;33.00;;;;;;;15.57;71.62;99538.42;223752;181;137069;-69
2023/05/26 04:19:56;;;;;;;52.50;34.40;;;;;;;15.62;71.58;99540.16;223688;181;145155;-69
2023/05/26 04:25:00;;;;;;;49.20;32.50;;;;;;;15.63;71.58;99545.63;223629;181;138774;-65
2023/05/26 04:33:31;;;;;;;47.70;32.50;;;;;;;15.70;71.61;99549.45;221562;193;666528;-66
2023/05/26 04:38:45;;;;;;;47.50;31.00;;;;;;;15.71;71.40;99542.75;223326;185;136985;-71
2023/05/26 04:43:49;;;;;;;46.70;30.90;;;;;;;15.75;71.27;99541.71;223537;183;143341;-71
2023/05/26 04:48:52;;;;;;;46.70;32.10;;;;;;;15.87;71.05;99537.79;223606;182;139859;-67
2023/05/26 04:53:55;;;;;;;47.20;31.50;;;;;;;15.94;70.87;99537.27;223550;182;137366;-69
2023/05/26 04:58:59;;;;;;;45.60;31.00;;;;;;;16.01;70.67;99530.42;223595;183;145960;-69
2023/05/26 05:04:03;;;;;;;45.60;30.20;;;;;;;16.07;70.56;99532.63;223592;181;139367;-71
2023/05/26 05:09:08;;;;;;;38.20;28.30;;;;;;;16.11;70.28;99537.41;223571;181;136986;-67
2023/05/26 05:14:12;;;;;;;38.70;27.80;;;;;;;16.14;70.11;99538.43;223582;181;143994;-69
2023/05/26 05:19:15;;;;;;;42.40;30.00;;;;;;;16.21;69.99;99538.01;223604;182;138268;-67
2023/05/26 05:24:24;;;;;;;45.10;28.90;;;;;;;16.26;69.58;99544.41;223599;181;138205;-69
2023/05/26 05:29:27;;;;;;;42.30;27.60;;;;;;;16.30;69.59;99542.55;223573;182;145289;-65
2023/05/26 05:34:33;;;;;;;38.20;28.00;;;;;;;16.35;69.54;99542.50;223616;182;138463;-64
2023/05/26 05:39:37;;;;;;;43.20;27.20;;;;;;;16.42;69.57;99537.69;223651;182;137315;-65
2023/05/26 05:44:41;;;;;;;39.30;25.70;;;;;;;16.48;69.38;99534.17;223572;183;147510;-67
2023/05/26 05:49:44;;;;;;;35.60;24.40;;;;;;;16.62;69.20;99534.98;223688;182;139185;-69
2023/05/26 05:54:48;;;;;;;37.30;24.50;;;;;;;16.75;68.73;99541.51;223686;183;137803;-67
2023/05/26 05:59:51;;;;;;;32.70;22.00;;;;;;;16.84;68.05;99547.27;223672;182;145345;-65
2023/05/26 06:04:54;;;;;;;38.80;24.20;;;;;;;16.87;67.68;99550.42;223516;182;138110;-70
2023/05/26 06:09:57;;;;;;;33.70;24.10;;;;;;;16.95;67.88;99556.23;223509;182;137721;-66
2023/05/26 06:15:01;;;;;;;36.60;24.80;;;;;;;16.98;67.60;99565.15;223594;182;145864;-66
2023/05/26 06:20:06;;;;;;;32.20;22.20;;;;;;;16.99;67.58;99571.67;223609;182;138134;-66
2023/05/26 06:25:09;;;;;;;36.30;20.90;;;;;;;17.04;67.48;99566.11;223586;182;137346;-66
2023/05/26 06:30:13;;;;;;;34.70;23.10;;;;;;;17.13;67.52;99566.64;223633;182;146489;-65
2023/05/26 06:35:20;;;;;;;30.20;22.20;;;;;;;17.24;67.50;99568.41;223598;181;138443;-68
2023/05/26 06:40:23;;;;;;;38.10;23.10;;;;;;;17.35;67.31;99564.11;223555;181;138461;-65
2023/05/26 06:45:26;;;;;;;37.10;23.00;;;;;;;17.47;67.11;99568.13;223571;181;145780;-66
2023/05/26 06:50:30;;;;;;;33.90;22.90;;;;;;;17.54;66.85;99573.48;223585;182;138352;-68
2023/05/26 06:55:34;;;;;;;32.30;22.80;;;;;;;17.59;66.70;99573.08;223704;182;137539;-68
2023/05/26 07:00:38;;;;;;;31.90;19.80;;;;;;;17.62;66.72;99577.36;223540;182;145622;-65
2023/05/26 07:05:49;;;;;;;32.80;21.20;;;;;;;17.67;66.67;99576.76;223583;182;138232;-64
2023/05/26 07:11:00;;;;;;;29.00;20.90;;;;;;;17.77;66.49;99575.96;223516;182;137085;-66
2023/05/26 07:16:05;;;;;;;26.60;20.20;;;;;;;17.86;65.94;99577.70;223541;182;145927;-65
2023/05/26 07:21:08;;;;;;;34.30;20.60;;;;;;;17.88;65.84;99580.41;223510;182;139279;-66
2023/05/26 07:26:12;;;;;;;38.70;24.40;;;;;;;17.93;65.70;99575.33;223601;182;137533;-67
2023/05/26 07:31:18;;;;;;;33.10;23.20;;;;;;;18.00;65.77;99572.96;223611;182;145956;-69
2023/05/26 07:36:25;;;;;;;33.20;21.70;;;;;;;18.02;65.67;99570.83;223417;181;138708;-65
2023/05/26 07:41:28;;;;;;;34.20;22.30;;;;;;;18.02;65.48;99573.20;223579;182;137816;-65
2023/05/26 07:46:31;;;;;;;34.10;21.90;;;;;;;18.02;65.47;99572.80;223528;181;145534;-65
2023/05/26 07:51:35;;;;;;;35.10;21.40;;;;;;;18.10;65.46;99573.32;223558;182;139003;-66
2023/05/26 07:56:38;;;;;;;27.60;20.50;;;;;;;18.20;65.40;99571.77;223534;181;142120;-65
2023/05/26 08:01:51;;;;;;;31.70;20.90;;;;;;;18.25;64.80;99570.27;223594;182;145279;-64
2023/05/26 08:06:54;;;;;;;30.70;21.00;;;;;;;18.27;64.59;99577.09;223548;182;139311;-65
2023/05/26 08:11:57;;;;;;;32.50;20.00;;;;;;;18.30;64.67;99577.91;223604;182;137250;-63
2023/05/26 08:17:01;;;;;;;29.80;20.80;;;;;;;18.39;64.90;99576.05;223663;182;145939;-65
2023/05/26 08:22:04;;;;;;;33.50;20.50;;;;;;;18.54;64.69;99574.83;223612;182;139269;-65
2023/05/26 08:27:08;;;;;;;26.80;18.90;;;;;;;18.60;64.54;99573.34;223528;182;137784;-66
2023/05/26 08:32:13;;;;;;;30.10;20.20;;;;;;;18.64;64.46;99571.25;223617;182;145397;-66
2023/05/26 08:37:17;;;;;;;39.60;19.10;;;;;;;18.75;64.40;99569.23;223644;182;138756;-66
2023/05/26 08:42:20;;;;;;;33.50;22.20;;;;;;;18.86;64.14;99562.89;223759;182;136797;-63
2023/05/26 08:47:37;;;;;;;;;;;;;;;19.07;64.36;99562.77;223663;181;146366;-67
2023/05/26 08:52:41;;;;;;;34.40;21.00;;;;;;;19.27;63.93;99559.60;223684;182;138473;-66
2023/05/26 08:58:05;;;;;;;33.20;19.80;;;;;;;19.46;63.61;99560.45;223578;182;136965;-65
2023/05/26 09:03:09;;;;;;;26.60;19.50;;;;;;;19.63;63.13;99558.13;223621;181;145618;-64
2023/05/26 09:08:12;;;;;;;30.30;18.30;;;;;;;19.80;62.79;99556.77;223576;182;138819;-64
2023/05/26 09:13:21;;;;;;;33.60;19.00;;;;;;;19.99;62.19;99553.18;223698;182;137419;-67
2023/05/26 09:18:25;;;;;;;29.20;18.50;;;;;;;20.15;61.86;99545.45;223685;181;146618;-68
2023/05/26 09:23:29;;;;;;;22.60;15.50;;;;;;;20.31;60.99;99541.54;223523;182;138495;-69
2023/05/26 09:28:32;;;;;;;26.50;16.80;;;;;;;20.51;60.78;99538.41;223590;181;139409;-67
2023/05/26 09:33:43;;;;;;;23.40;15.00;;;;;;;20.60;59.32;99539.03;223632;181;146608;-69
2023/05/26 09:38:46;;;;;;;23.40;15.80;;;;;;;20.74;59.60;99534.56;223595;182;139590;-66
2023/05/26 09:43:51;;;;;;;39.70;28.70;;;;;;;20.87;58.92;99535.84;223592;181;137570;-67
2023/05/26 09:48:56;;;;;;;19.30;12.80;;;;;;;20.99;57.90;99534.16;223661;183;145251;-64
2023/05/26 09:54:00;;;;;;;16.60;11.40;;;;;;;21.14;57.15;99535.74;223581;181;138246;-66
2023/05/26 09:59:07;;;;;;;21.50;13.40;;;;;;;21.28;57.06;99528.12;223603;182;138061;-65
2023/05/26 10:04:11;;;;;;;19.10;12.70;;;;;;;21.45;56.98;99523.91;223497;181;145664;-65
2023/05/26 10:09:15;;;;;;;21.30;13.60;;;;;;;21.60;56.59;99517.67;223417;181;138422;-66
2023/05/26 10:14:18;;;;;;;22.50;13.70;;;;;;;21.79;56.78;99515.44;223320;182;137865;-66
2023/05/26 10:19:22;;;;;;;22.90;11.60;;;;;;;21.98;55.78;99510.20;223756;181;145722;-66
2023/05/26 10:24:32;;;;;;;20.80;12.80;;;;;;;22.30;55.65;99513.66;223557;181;139793;-66
2023/05/26 10:33:36;;;;;;;17.60;13.90;;;;;;;22.37;54.15;99513.42;220868;193;666749;-67
2023/05/26 10:38:47;;;;;;;20.70;13.00;;;;;;;22.09;54.27;99511.07;223450;183;136083;-66
2023/05/26 10:43:50;;;;;;;50.80;36.90;;;;;;;21.84;54.97;99507.80;223516;182;143075;-66
2023/05/26 10:48:58;;;;;;;21.50;15.10;;;;;;;21.66;55.88;99502.97;223736;180;139519;-67
2023/05/26 10:54:28;;;;;;;25.20;17.10;;;;;;;21.65;56.40;99501.80;221756;208;665779;-67
2023/05/26 10:59:36;;;;;;;17.20;10.70;;;;;;;21.80;56.85;99500.45;223298;185;137168;-67
2023/05/26 11:04:41;;;;;;;13.40;9.40;;;;;;;22.00;56.45;99504.20;223547;184;144283;-67
2023/05/26 11:10:03;;;;;;;20.20;13.20;;;;;;;21.95;55.41;99506.50;223433;183;139297;-65
2023/05/26 11:15:28;;;;;;;18.80;11.10;;;;;;;21.80;55.95;99506.48;223338;183;137586;-66
2023/05/26 11:20:32;;;;;;;17.90;11.00;;;;;;;21.67;55.89;99502.12;223510;183;143495;-65
2023/05/26 11:25:47;;;;;;;16.70;9.80;;;;;;;21.57;56.33;99502.29;223618;183;139053;-66
2023/05/26 11:33:28;;;;;;;15.20;10.60;;;;;;;21.44;56.23;99507.04;221830;192;676634;-67
2023/05/26 11:38:32;;;;;;;14.00;10.30;;;;;;;21.32;56.58;99507.09;223063;187;139832;-66
2023/05/26 11:43:39;;;;;;;13.10;9.40;;;;;;;21.25;56.89;99502.50;223525;183;145252;-67
2023/05/26 11:48:43;;;;;;;29.00;19.00;;;;;;;21.21;56.59;99499.82;223427;182;138288;-67
2023/05/26 11:53:55;;;;;;;14.70;8.30;;;;;;;21.17;56.00;99492.70;223196;183;136970;-65
2023/05/26 11:59:00;;;;;;;16.00;7.80;;;;;;;21.12;56.08;99489.61;223504;182;144800;-64
2023/05/26 12:04:05;;;;;;;17.00;10.20;;;;;;;21.13;56.45;99483.35;223440;183;138397;-64
2023/05/26 12:09:22;;;;;;;17.80;10.10;;;;;;;21.12;56.93;99479.89;223529;183;137245;-66
2023/05/26 12:14:27;;;;;;;15.40;9.00;;;;;;;21.11;57.44;99478.89;223643;183;143339;-65
2023/05/26 12:19:31;;;;;;;13.90;9.00;;;;;;;21.10;57.52;99478.81;223680;183;139290;-67
2023/05/26 12:24:38;;;;;;;11.30;8.40;;;;;;;21.13;58.04;99475.54;223572;183;137332;-66
2023/05/26 12:36:18;;;;;;;16.00;7.80;;;;;;;21.30;56.53;99466.29;221939;189;887347;-67
2023/05/26 12:41:24;;;;;;;9.90;6.50;;;;;;;21.43;56.27;99460.45;223207;186;137117;-67
2023/05/26 12:46:29;;;;;;;9.30;5.40;;;;;;;21.53;55.99;99455.16;223205;187;144573;-68
2023/05/26 12:51:35;;;;;;;6.40;4.90;;;;;;;21.68;54.65;99446.42;223624;183;139621;-68
2023/05/26 15:05:50;;;;;;;9.50;4.80;;;;;;;21.87;52.18;99432.59;221440;193;664973;-64
2023/05/26 15:10:53;;;;;;;;;;;;;;;21.76;51.49;99435.01;223436;185;137346;-63
2023/05/26 15:15:57;;;;;;;12.50;4.90;;;;;;;21.66;50.87;99438.33;223659;182;143619;-63
2023/05/26 15:21:02;;;;;;;13.00;4.70;;;;;;;21.56;51.01;99442.97;223542;183;139269;-65
2023/05/26 15:26:06;;;;;;;8.40;4.80;;;;;;;21.55;50.79;99439.80;223689;183;138270;-65
2023/05/26 15:31:09;;;;;;;9.40;5.10;;;;;;;21.55;51.10;99441.29;223601;182;143441;-65
2023/05/26 15:36:21;;;;;;;8.70;4.80;;;;;;;21.49;50.44;99447.58;223639;182;140384;-64
2023/05/26 15:41:26;;;;;;;13.20;4.90;;;;;;;21.44;51.14;99449.56;223650;182;136175;-65
2023/05/26 15:46:31;;;;;;;12.70;6.00;;;;;;;21.40;51.61;99452.84;223610;183;143460;-63
2023/05/26 15:51:35;;;;;;;10.60;5.70;;;;;;;21.32;51.17;99448.97;223493;179;139050;-64
2023/05/26 15:56:39;;;;;;;11.10;5.00;;;;;;;21.27;51.13;99450.73;223390;182;137071;-64
2023/05/26 16:01:42;;;;;;;8.80;5.00;;;;;;;21.22;50.79;99445.99;223510;182;146229;-64
2023/05/26 16:06:45;;;;;;;10.00;4.80;;;;;;;21.20;50.80;99447.09;223618;182;138818;-63
2023/05/26 16:11:49;;;;;;;10.60;5.90;;;;;;;21.19;50.88;99445.23;223596;182;136655;-64
2023/05/26 16:16:52;;;;;;;12.20;6.30;;;;;;;21.18;51.14;99446.02;223540;183;147775;-64
2023/05/26 16:21:58;;;;;;;9.70;4.80;;;;;;;21.18;50.77;99449.29;223531;182;138340;-64
2023/05/26 16:27:01;;;;;;;10.50;5.50;;;;;;;21.16;51.03;99448.05;223460;183;137116;-64
2023/05/26 16:32:05;;;;;;;9.40;4.50;;;;;;;21.15;50.50;99448.45;223479;182;145753;-64
2023/05/26 16:37:08;;;;;;;6.80;4.60;;;;;;;21.13;50.21;99450.46;223519;183;139248;-64
2023/05/26 16:42:11;;;;;;;13.30;5.10;;;;;;;21.06;49.56;99452.28;223482;183;138890;-64
2023/05/26 16:47:14;;;;;;;6.80;4.40;;;;;;;21.00;49.75;99449.38;223586;182;145206;-63
2023/05/26 16:52:17;;;;;;;173.30;143.80;;;;;;;20.99;49.90;99450.64;223184;183;138817;-63
2023/05/26 16:57:21;;;;;;;24.80;17.20;;;;;;;21.02;50.48;99455.92;223420;204;137239;-64
2023/05/26 17:02:24;;;;;;;12.20;6.90;;;;;;;21.06;51.21;99463.45;223382;182;145775;-64
2023/05/26 17:07:28;;;;;;;11.00;5.80;;;;;;;21.04;51.14;99468.13;223322;182;138388;-63
2023/05/26 17:12:31;;;;;;;7.80;5.10;;;;;;;21.01;51.33;99468.46;223342;183;137138;-64
2023/05/26 17:17:35;;;;;;;11.70;5.80;;;;;;;20.98;50.75;99464.73;223435;204;145708;-63
2023/05/26 17:22:39;;;;;;;8.00;5.00;;;;;;;20.97;50.78;99465.95;223427;181;139001;-64
2023/05/26 17:27:43;;;;;;;8.00;5.10;;;;;;;20.92;50.42;99467.52;223534;182;136874;-63
2023/05/26 17:32:46;;;;;;;7.30;4.70;;;;;;;20.89;50.22;99467.88;223549;181;145308;-64
2023/05/26 17:37:49;;;;;;;15.60;4.40;;;;;;;20.84;49.82;99469.02;223506;181;138844;-64
2023/05/26 17:42:52;;;;;;;7.90;4.00;;;;;;;20.80;49.41;99475.55;223468;181;138253;-64
2023/05/26 17:47:55;;;;;;;83.80;64.60;;;;;;;20.76;48.14;99483.20;223446;181;145372;-64
2023/05/26 17:52:58;;;;;;;11.30;7.10;;;;;;;20.73;48.07;99492.86;223383;181;138445;-64
2023/05/26 17:58:02;;;;;;;9.60;4.00;;;;;;;20.68;46.45;99502.20;223468;182;136904;-63
2023/05/26 18:03:05;;;;;;;14.00;3.70;;;;;;;20.57;46.00;99503.60;223460;214;146088;-63
2023/05/26 18:08:09;;;;;;;9.60;4.00;;;;;;;20.46;45.78;99508.41;223487;184;138074;-64
2023/05/26 18:13:12;;;;;;;8.50;3.30;;;;;;;20.39;46.54;99515.17;223549;181;136186;-64
2023/05/26 18:18:16;;;;;;;10.70;3.90;;;;;;;20.28;45.76;99515.69;223508;182;145762;-63
2023/05/26 18:23:19;;;;;;;6.50;3.60;;;;;;;20.25;46.90;99516.69;223464;181;138254;-65
2023/05/26 18:28:22;;;;;;;10.10;3.40;;;;;;;20.27;46.19;99520.46;223611;214;136819;-64
2023/05/26 18:33:26;;;;;;;9.60;3.50;;;;;;;20.23;44.68;99529.33;223523;214;145130;-64
2023/05/26 18:38:29;;;;;;;14.90;9.90;;;;;;;20.09;43.85;99542.02;223361;181;138530;-64
2023/05/26 18:43:32;;;;;;;11.20;5.60;;;;;;;20.00;44.19;99545.34;223465;181;136998;-64
2023/05/26 18:48:35;;;;;;;12.50;3.40;;;;;;;19.80;41.75;99551.77;223622;181;145098;-62
2023/05/26 18:53:39;;;;;;;7.80;3.10;;;;;;;19.51;41.38;99556.68;223631;181;138310;-65
2023/05/26 18:58:42;;;;;;;8.50;3.20;;;;;;;19.28;41.53;99562.02;223601;181;137316;-63
2023/05/26 19:03:45;;;;;;;9.20;3.00;;;;;;;19.08;41.34;99567.94;223505;181;145830;-65
2023/05/26 19:08:48;;;;;;;11.30;3.40;;;;;;;18.92;41.29;99568.66;223528;181;138407;-65
2023/05/26 19:13:51;;;;;;;12.20;3.50;;;;;;;18.76;41.47;99570.95;223605;181;137389;-62
2023/05/26 19:18:55;;;;;;;6.40;3.20;;;;;;;18.62;41.73;99574.59;223645;181;146595;-64
2023/05/26 19:23:58;;;;;;;7.00;3.30;;;;;;;18.50;41.95;99573.56;223657;181;138338;-63
2023/05/26 19:29:02;;;;;;;9.00;3.50;;;;;;;18.37;42.03;99577.89;223510;181;140493;-63
2023/05/26 19:34:11;;;;;;;9.20;3.50;;;;;;;18.31;41.71;99579.67;223580;181;145568;-63
2023/05/26 19:39:15;;;;;;;11.80;5.20;;;;;;;18.29;41.53;99576.27;223530;182;138307;-65
2023/05/26 19:44:30;;;;;;;10.30;4.50;;;;;;;18.24;41.50;99576.14;223616;181;137957;-66
2023/05/26 19:49:39;;;;;;;8.60;3.60;;;;;;;18.19;41.75;99579.76;223637;181;144945;-65
2023/05/26 19:54:43;;;;;;;9.90;3.80;;;;;;;18.11;42.82;99581.36;223530;181;138504;-67
2023/05/26 19:59:47;;;;;;;8.90;3.70;;;;;;;18.04;42.45;99579.44;223704;181;137301;-66
2023/05/26 20:04:50;;;;;;;10.80;4.20;;;;;;;17.97;42.94;99585.39;223672;181;147321;-66
2023/05/26 20:09:54;;;;;;;13.00;4.10;;;;;;;17.88;43.03;99593.33;223635;181;139042;-69
2023/05/26 20:14:58;;;;;;;8.50;3.70;;;;;;;17.79;43.22;99603.39;223665;181;136760;-66
2023/05/26 20:20:03;;;;;;;9.80;3.90;;;;;;;17.70;43.69;99602.88;223686;181;145918;-68
2023/05/26 20:25:09;;;;;;;8.30;3.60;;;;;;;17.60;43.68;99605.64;223595;181;139074;-65
2023/05/26 20:30:13;;;;;;;12.00;4.10;;;;;;;17.54;43.75;99609.26;223590;181;138937;-63
2023/05/26 20:35:17;;;;;;;12.00;4.20;;;;;;;17.48;43.94;99617.42;223639;181;145676;-64
2023/05/26 20:40:24;;;;;;;9.80;4.10;;;;;;;17.39;44.22;99618.48;223635;181;138639;-65
2023/05/26 20:45:28;;;;;;;10.00;3.90;;;;;;;17.31;44.45;99625.06;223714;181;136852;-69
2023/05/26 20:50:32;;;;;;;13.30;4.20;;;;;;;17.26;44.60;99626.37;223726;181;145558;-68
2023/05/26 20:55:36;;;;;;;9.90;4.00;;;;;;;17.21;44.82;99628.42;223723;181;138544;-62
2023/05/26 21:00:39;;;;;;;7.50;3.40;;;;;;;17.22;44.85;99632.63;223623;181;137167;-64
2023/05/26 21:05:42;;;;;;;12.20;3.70;;;;;;;17.21;44.77;99632.55;223759;181;145603;-67
2023/05/26 21:10:46;;;;;;;10.50;4.00;;;;;;;17.22;44.87;99631.31;223620;181;138085;-69
2023/05/26 21:15:49;;;;;;;9.60;3.70;;;;;;;17.22;44.85;99631.36;223693;181;137645;-70
2023/05/26 21:20:52;;;;;;;11.90;4.50;;;;;;;17.18;44.97;99627.57;223755;181;145285;-64
2023/05/26 21:25:55;;;;;;;12.30;3.90;;;;;;;17.10;44.93;99626.98;223515;180;138885;-66
2023/05/26 21:30:59;;;;;;;8.20;3.60;;;;;;;17.07;44.94;99628.97;223704;181;136713;-66
2023/05/26 21:36:02;;;;;;;10.00;3.70;;;;;;;17.04;45.13;99629.94;223765;181;146746;-65
2023/05/26 21:41:06;;;;;;;11.60;4.30;;;;;;;16.99;45.15;99630.81;223640;181;138638;-68
2023/05/26 21:46:09;;;;;;;10.60;5.30;;;;;;;16.97;45.00;99627.95;223563;181;136785;-64
2023/05/26 21:51:13;;;;;;;8.60;3.90;;;;;;;16.88;45.51;99631.23;223682;182;146844;-64
2023/05/26 21:56:16;;;;;;;14.50;3.80;;;;;;;16.78;45.40;99631.41;223601;181;138428;-64
2023/05/26 22:01:19;;;;;;;13.10;3.80;;;;;;;16.72;45.74;99631.17;223677;181;137831;-63
2023/05/26 22:06:23;;;;;;;10.10;4.10;;;;;;;16.66;45.67;99636.63;223672;181;145138;-66
2023/05/26 22:11:27;;;;;;;9.70;3.50;;;;;;;16.62;45.74;99641.77;223693;181;138334;-64
2023/05/26 22:16:30;;;;;;;10.00;3.60;;;;;;;16.55;46.03;99645.58;223667;181;137523;-63
2023/05/26 22:21:33;;;;;;;13.60;4.30;;;;;;;16.48;46.10;99645.88;223715;181;145497;-62
2023/05/26 22:26:36;;;;;;;13.80;3.90;;;;;;;16.48;46.02;99646.65;223587;180;138773;-64
2023/05/26 22:31:40;;;;;;;9.30;3.80;;;;;;;16.44;46.28;99641.73;223663;181;136858;-64
2023/05/26 22:36:44;;;;;;;12.20;4.20;;;;;;;16.40;46.12;99638.33;223693;181;146727;-66
2023/05/26 22:41:48;;;;;;;15.10;4.00;;;;;;;16.36;45.88;99636.11;223542;181;138495;-66
2023/05/26 22:46:51;;;;;;;7.80;3.70;;;;;;;16.32;45.90;99633.15;223608;181;141388;-65
2023/05/26 22:51:55;;;;;;;11.00;4.00;;;;;;;16.26;45.76;99635.56;223558;182;144908;-65
2023/05/26 22:56:58;;;;;;;11.40;4.60;;;;;;;16.21;45.83;99631.65;223713;181;138573;-63
2023/05/26 23:02:01;;;;;;;11.60;4.10;;;;;;;16.21;45.74;99632.91;223576;177;137500;-65
2023/05/26 23:07:04;;;;;;;12.50;3.90;;;;;;;16.18;45.47;99638.55;223743;181;258521;-69
2023/05/26 23:12:07;;;;;;;9.90;4.30;;;;;;;16.14;45.46;99637.77;223635;181;138558;-64
2023/05/26 23:17:10;;;;;;;11.50;4.30;;;;;;;16.04;45.78;99645.68;222443;181;136614;-67
2023/05/26 23:22:13;;;;;;;15.00;3.90;;;;;;;15.99;45.77;99647.27;221112;181;145675;-67
2023/05/26 23:27:17;;;;;;;10.60;3.50;;;;;;;15.92;45.55;99651.04;222943;181;138855;-62
2023/05/26 23:33:29;;;;;;;10.60;3.70;;;;;;;15.84;45.70;99651.81;219839;193;666583;-65
2023/05/26 23:38:32;;;;;;;14.10;4.60;;;;;;;15.75;45.81;99655.35;223717;183;136508;-65
2023/05/26 23:43:35;;;;;;;11.20;4.00;;;;;;;15.71;45.88;99661.02;223676;182;143516;-66
2023/05/26 23:48:40;;;;;;;17.30;4.40;;;;;;;15.66;46.09;99660.85;223740;181;138357;-67
2023/05/26 23:53:43;;;;;;;11.00;4.00;;;;;;;15.57;46.11;99662.30;223710;181;137270;-68
2023/05/26 23:58:47;;;;;;;13.60;4.10;;;;;;;15.51;46.47;99666.71;223719;181;143489;-68
